Terminal Aerodrome Forecast
Issued by NWS

Home | Current Version | Previous Version | Text Only | Print | Product List | Glossary On
Versions: 1 2 3 4 5 6 7 8 9 10 11 12 13 14 15 16 17 18 19 20 21 22 23 24 25
000
FTUS43 KICT 212333
TAFHUT
TAF
KHUT 212333Z 2200/2224 17014KT 4SM BR OVC006
      TEMPO 2200/2203 2SM -DZ BR OVC004
     FM220300 17014KT 2SM -DZ BR OVC004
     FM221300 27015KT P6SM SCT020 BKN035
     FM221600 30017G24KT P6SM SCT100=

USA.gov is the U.S. government's official web portal to all federal, state and local government web resources and services.